createdAt,value
2018-09-12T00:03:04.629Z,0.80
2018-09-12T00:08:07.703Z,0.97
2018-09-12T00:13:10.811Z,0.83
2018-09-12T00:18:13.943Z,1.50
2018-09-12T00:23:17.184Z,1.00
2018-09-12T00:28:20.290Z,0.80
2018-09-12T00:33:23.388Z,0.75
2018-09-12T00:38:26.483Z,1.20
2018-09-12T00:43:29.593Z,0.77
2018-09-12T00:48:32.700Z,0.90
2018-09-12T00:53:35.803Z,0.70
2018-09-12T00:58:38.912Z,1.87
2018-09-12T01:03:42.113Z,1.70
2018-09-12T01:08:45.216Z,1.30
2018-09-12T01:13:48.321Z,0.83
2018-09-12T01:18:51.464Z,1.10
2018-09-12T01:23:54.577Z,1.40
2018-09-12T01:28:57.685Z,0.90
2018-09-12T01:34:00.785Z,1.60
2018-09-12T01:39:04.933Z,1.17
2018-09-12T01:44:08.032Z,1.30
2018-09-12T01:49:15.569Z,0.90
2018-09-12T01:54:19.125Z,1.07
2018-09-12T01:59:22.228Z,1.37
2018-09-12T02:04:25.346Z,1.60
2018-09-12T02:09:28.465Z,1.30
2018-09-12T02:14:31.628Z,1.27
2018-09-12T02:19:34.741Z,0.87
2018-09-12T02:24:37.832Z,1.10
2018-09-12T02:29:40.929Z,0.90
2018-09-12T02:34:44.053Z,1.10
2018-09-12T02:39:47.192Z,1.40
2018-09-12T02:44:50.334Z,0.87
2018-09-12T02:49:53.396Z,1.17
2018-09-12T02:54:56.496Z,0.90
2018-09-12T03:00:00.732Z,1.00
2018-09-12T03:05:03.953Z,0.80
2018-09-12T03:10:07.423Z,0.90
2018-09-12T03:15:10.706Z,1.37
2018-09-12T03:20:13.800Z,1.22
2018-09-12T03:25:16.912Z,0.88
2018-09-12T03:30:20.008Z,1.30
2018-09-12T03:35:23.126Z,1.02
2018-09-12T03:40:26.255Z,0.73
2018-09-12T03:45:29.353Z,1.57
2018-09-12T03:50:32.477Z,1.95
2018-09-12T03:55:35.592Z,1.27
2018-09-12T04:00:38.706Z,1.37
2018-09-12T04:05:41.996Z,1.40
2018-09-12T04:10:45.405Z,0.67
2018-09-12T04:15:48.832Z,1.47
2018-09-12T04:20:52.176Z,1.33
2018-09-12T04:25:55.538Z,1.73
2018-09-12T04:30:58.633Z,1.30
2018-09-12T04:36:01.957Z,1.10
2018-09-12T04:41:06.135Z,1.30
2018-09-12T04:46:09.467Z,1.27
2018-09-12T04:51:12.764Z,2.37
2018-09-12T04:56:16.063Z,1.00
2018-09-12T05:01:20.692Z,1.10
2018-09-12T05:06:24.340Z,0.97
2018-09-12T05:11:27.858Z,0.80
2018-09-12T05:16:31.215Z,1.47
2018-09-12T05:21:34.609Z,1.30
2018-09-12T05:26:37.837Z,1.30
2018-09-12T05:31:41.126Z,1.40
2018-09-12T05:36:44.322Z,1.07
2018-09-12T05:41:47.497Z,1.43
2018-09-12T05:46:50.767Z,1.80
2018-09-12T05:51:54.041Z,1.53
2018-09-12T05:56:57.241Z,1.57
2018-09-12T06:02:00.819Z,1.47
2018-09-12T06:07:04.362Z,1.50
2018-09-12T06:12:07.706Z,1.30
2018-09-12T06:17:11.046Z,2.47
2018-09-12T06:22:14.278Z,2.27
2018-09-12T06:27:17.634Z,2.50
2018-09-12T06:32:20.909Z,1.30
2018-09-12T06:37:24.131Z,1.33
2018-09-12T06:42:27.467Z,1.37
2018-09-12T06:47:30.681Z,2.03
2018-09-12T06:52:33.901Z,2.20
2018-09-12T06:57:37.237Z,2.03
2018-09-12T07:02:40.361Z,2.23
2018-09-12T07:07:43.553Z,2.07
2018-09-12T07:12:46.983Z,2.33
2018-09-12T07:17:50.085Z,1.87
2018-09-12T07:22:53.239Z,2.40
2018-09-12T07:27:56.363Z,2.57
2018-09-12T07:32:59.473Z,2.40
2018-09-12T07:38:02.862Z,2.17
2018-09-12T07:43:05.976Z,3.27
2018-09-12T07:48:09.173Z,3.47
2018-09-12T07:53:12.413Z,2.70
2018-09-12T07:58:15.864Z,2.77
2018-09-12T08:03:19.077Z,2.15
2018-09-12T08:08:22.374Z,2.30
2018-09-12T08:13:25.581Z,3.00
2018-09-12T08:18:28.788Z,3.87
2018-09-12T08:23:31.906Z,2.53
2018-09-12T08:28:35.213Z,2.80
2018-09-12T08:33:38.487Z,3.03
2018-09-12T08:38:41.694Z,3.00
2018-09-12T08:43:44.901Z,2.73
2018-09-12T08:48:48.213Z,2.93
2018-09-12T08:53:51.454Z,3.37
2018-09-12T08:58:54.569Z,3.13
2018-09-12T09:03:57.683Z,3.30
2018-09-12T09:09:00.784Z,3.70
2018-09-12T09:14:04.114Z,2.87
2018-09-12T09:19:07.327Z,2.87
2018-09-12T09:24:10.528Z,2.33
2018-09-12T09:29:13.878Z,2.97
2018-09-12T09:34:17.463Z,2.42
2018-09-12T09:39:20.667Z,2.33
2018-09-12T09:44:23.845Z,2.85
2018-09-12T09:49:30.103Z,2.57
2018-09-12T09:54:33.378Z,2.37
2018-09-12T09:59:37.045Z,1.80
2018-09-12T10:04:45.559Z,2.37
2018-09-12T10:09:52.970Z,2.10
2018-09-12T10:14:56.225Z,1.40
2018-09-12T10:19:59.726Z,1.50
2018-09-12T10:25:02.993Z,1.53
2018-09-12T10:30:07.893Z,1.40
2018-09-12T10:35:11.129Z,1.20
2018-09-12T10:40:14.326Z,2.05
2018-09-12T10:45:17.425Z,1.73
2018-09-12T10:50:20.697Z,1.87
2018-09-12T10:55:23.929Z,2.10
2018-09-12T11:00:27.158Z,1.77
2018-09-12T11:05:30.439Z,1.70
2018-09-12T11:10:33.609Z,1.60
2018-09-12T11:15:36.919Z,1.80
2018-09-12T11:20:40.125Z,1.70
2018-09-12T11:25:43.407Z,1.67
2018-09-12T11:30:46.654Z,1.97
2018-09-12T11:35:49.916Z,1.60
2018-09-12T11:40:53.182Z,1.30
2018-09-12T11:45:56.621Z,2.00
2018-09-12T11:50:59.880Z,1.87
2018-09-12T11:56:03.201Z,1.67
2018-09-12T12:01:06.731Z,1.60
2018-09-12T12:06:10.015Z,1.20
2018-09-12T12:11:13.372Z,1.47
2018-09-12T12:16:16.608Z,1.45
2018-09-12T12:21:19.874Z,1.67
2018-09-12T12:26:23.074Z,1.37
2018-09-12T12:31:26.274Z,1.37
2018-09-12T12:36:29.489Z,0.90
2018-09-12T12:41:32.748Z,1.07
2018-09-12T12:46:36.023Z,1.40
2018-09-12T12:51:39.257Z,1.40
2018-09-12T12:56:42.514Z,1.27
2018-09-12T13:01:45.881Z,1.30
2018-09-12T13:06:49.062Z,1.13
2018-09-12T13:11:52.331Z,1.43
2018-09-12T13:16:55.611Z,1.37
2018-09-12T13:21:58.817Z,1.17
2018-09-12T13:27:02.133Z,1.10
2018-09-12T13:32:05.865Z,1.37
2018-09-12T13:37:09.092Z,1.40
2018-09-12T13:42:12.420Z,1.33
2018-09-12T13:47:15.582Z,1.20
2018-09-12T13:52:18.832Z,1.37
2018-09-12T13:57:22.306Z,1.57
2018-09-12T14:02:25.602Z,1.17
2018-09-12T14:07:28.797Z,1.07
2018-09-12T14:12:32.105Z,1.12
2018-09-12T14:17:35.327Z,0.90
2018-09-12T14:22:38.581Z,1.27
2018-09-12T14:27:44.850Z,1.43
2018-09-12T14:32:48.293Z,1.17
2018-09-12T14:37:58.679Z,1.43
2018-09-12T14:43:12.616Z,0.93
2018-09-12T14:48:15.939Z,1.20
2018-09-12T14:53:19.242Z,1.10
2018-09-12T14:58:22.472Z,1.03
2018-09-12T15:03:25.734Z,1.10
2018-09-12T15:13:38.552Z,1.37
2018-09-12T15:18:41.679Z,0.83
2018-09-12T15:23:44.796Z,1.53
2018-09-12T15:28:48.067Z,1.00
2018-09-12T15:33:51.148Z,1.20
2018-09-12T15:38:54.264Z,1.20
2018-09-12T15:43:57.397Z,0.90
2018-09-12T15:49:00.548Z,1.20
2018-09-12T15:54:03.689Z,1.10
2018-09-12T15:59:06.793Z,1.10
2018-09-12T16:04:09.904Z,0.90
2018-09-12T16:09:13.075Z,1.10
2018-09-12T16:14:16.319Z,1.25
2018-09-12T16:19:19.562Z,1.20
2018-09-12T16:24:22.829Z,1.30
2018-09-12T16:29:26.006Z,1.37
2018-09-12T16:34:29.333Z,1.30
2018-09-12T16:39:32.602Z,1.80
2018-09-12T16:44:36.874Z,1.23
2018-09-12T16:49:40.186Z,1.40
2018-09-12T16:54:43.292Z,1.22
2018-09-12T16:59:46.392Z,1.10
2018-09-12T17:04:49.761Z,1.23
2018-09-12T17:09:53.045Z,1.20
2018-09-12T17:14:56.293Z,0.90
2018-09-12T17:19:59.557Z,1.20
2018-09-12T17:25:02.920Z,1.03
2018-09-12T17:30:06.168Z,1.43
2018-09-12T17:35:09.602Z,1.33
2018-09-12T17:40:12.909Z,1.30
2018-09-12T17:45:16.298Z,1.10
2018-09-12T17:50:19.751Z,1.55
2018-09-12T17:55:23.034Z,1.40
2018-09-12T18:00:26.313Z,0.93
2018-09-12T18:05:29.623Z,1.10
2018-09-12T18:10:32.801Z,2.33
2018-09-12T18:15:36.013Z,2.03
2018-09-12T18:20:39.217Z,1.07
2018-09-12T18:25:42.458Z,1.10
2018-09-12T18:30:45.725Z,0.70
2018-09-12T18:35:49.005Z,0.90
2018-09-12T18:40:52.310Z,1.30
2018-09-12T18:45:55.719Z,1.20
2018-09-12T18:51:03.662Z,1.90
2018-09-12T18:56:06.831Z,1.00
2018-09-12T19:01:09.940Z,1.03
2018-09-12T19:06:13.041Z,1.20
2018-09-12T19:11:16.139Z,1.40
2018-09-12T19:16:19.369Z,1.60
2018-09-12T19:21:22.787Z,1.25
2018-09-12T19:26:26.039Z,1.20
2018-09-12T19:31:29.267Z,1.17
2018-09-12T19:36:32.558Z,1.40
2018-09-12T19:41:35.884Z,1.00
2018-09-12T19:46:39.133Z,1.10
2018-09-12T19:51:42.404Z,1.07
2018-09-12T19:56:45.621Z,1.20
2018-09-12T20:01:48.852Z,1.27
2018-09-12T20:06:52.252Z,1.03
2018-09-12T20:11:55.468Z,1.20
2018-09-12T20:16:58.750Z,1.23
2018-09-12T20:22:01.966Z,1.00
2018-09-12T20:27:06.148Z,0.93
2018-09-12T20:32:09.418Z,1.50
2018-09-12T20:37:13.333Z,1.30
2018-09-12T20:42:16.647Z,1.23
2018-09-12T20:47:19.928Z,1.17
2018-09-12T20:52:23.397Z,1.00
2018-09-12T20:57:26.692Z,1.73
2018-09-12T21:02:29.948Z,0.83
2018-09-12T21:07:33.031Z,1.00
2018-09-12T21:12:36.144Z,1.03
2018-09-12T21:17:39.256Z,1.17
2018-09-12T21:22:42.372Z,1.30
2018-09-12T21:27:45.600Z,1.07
2018-09-12T21:32:48.869Z,2.13
2018-09-12T21:37:51.986Z,1.40
2018-09-12T21:42:55.121Z,1.27
2018-09-12T21:47:58.235Z,1.47
2018-09-12T21:53:01.337Z,1.20
2018-09-12T21:58:04.437Z,1.00
2018-09-12T22:03:07.546Z,0.97
2018-09-12T22:08:10.745Z,1.03
2018-09-12T22:13:13.789Z,1.80
2018-09-12T22:18:16.869Z,1.30
2018-09-12T22:23:19.992Z,1.70
2018-09-12T22:28:23.096Z,0.90
2018-09-12T22:33:26.201Z,1.20
2018-09-12T22:38:29.621Z,0.70
2018-09-12T22:43:32.874Z,1.23
2018-09-12T22:48:36.033Z,1.27
2018-09-12T22:53:39.136Z,0.93
2018-09-12T22:58:42.306Z,1.20
2018-09-12T23:03:45.388Z,1.40
2018-09-12T23:08:48.492Z,2.67
2018-09-12T23:13:51.606Z,1.33
2018-09-12T23:18:54.880Z,0.87
2018-09-12T23:23:59.101Z,0.90
2018-09-12T23:29:02.476Z,1.43
2018-09-12T23:34:06.239Z,1.35
2018-09-12T23:39:11.629Z,1.23
2018-09-12T23:44:14.865Z,1.50
2018-09-12T23:49:18.179Z,1.40
2018-09-12T23:54:21.458Z,1.02
2018-09-12T23:59:24.735Z,1.10
